Lawrenceburg, TN (38464)

3:34 AM CDT on August 21, 2017 (GMT -0500)
WLX Radio Studios | | Change Station

Elev 932 ft 35.25 °N, 87.33 °W | Updated 13 minutes ago

Clear
Clear
70.4 °F
Feels Like 70.4 °F
N
0.0
Wind Variable Wind from East
Gusts 0.0 mph

Today
High -- | Low -- °F
--% Chance of Precip.
Yesterday
High -- | Low -- °F
Precip. -- in
Pressure 30.11 in
Visibility 9.0 miles
Clouds Scattered Clouds 200 ft
Dew Point 68 °F
Humidity 91%
Rainfall 0.00 in
Snow Depth Not available.
6:13 AM 7:30 PM
Waning Crescent, 0% visible
METAR KMRC 210815Z AUTO 00000KT 9SM SCT002 20/20 A3011 RMK A01
Pressure 30.11 in
Visibility 9.0 miles
Clouds Scattered Clouds 200 ft
Dew Point 68 °F
Humidity 91%
Rainfall 0.00 in
Snow Depth Not available.
6:13 AM 7:30 PM
Waning Crescent, 0% visible
METAR KMRC 210815Z AUTO 00000KT 9SM SCT002 20/20 A3011 RMK A01

Get Severe Weather Alerts

Thanks for signing up!

Be on the lookout for a verification email in your inbox.

You'll start receiving the daily forecast at 6 AM.

×

10-Day Weather Forecast

Almanac

Astronomy

Aug. 21, 2017 Rise Set
Actual Time
Civil Twilight
Nautical Twilight
Astronomical Twilight
Moon
Length of Visible Light
Length of Day
Tomorrow will be .
, % of the Moon is Illuminated

Today's Extremes

State Highs State Lows

Community

WunderPhotos

Category 6

Welcome to Category 6. This is the collective home for Weather Underground's featured writeups by Dr. Jeff Masters (right), Bob Henson (left), Chris Burt, and other regular contributors.

Nearby

Air Quality

  Air Quality AQ Index Pollutant
Not available.

Snow Depth

Station Depth Elevation

Earthquake Activity

City Distance Mag. Time & Date
Minimum magnitude displayed is 2.5.

Coastal Water Temperatures

Place Temperature

Stations

Nearby Weather Stations

Station Location Temp. Windchill Dew Point Humidity Wind Precip. Elev Updated Type
                   

Watches & Warnings

There are currently no watches in effect.